Time;durP1;ratioP1;P1;durP2;ratioP2;P2;SDS_P1;SDS_P2;PMS_P1;PMS_P2;Temp;Humidity;BMP_temperature;BMP_pressure;BME280_temperature;BME280_humidity;BME280_pressure;Samples;Min_cycle;Max_cycle;Signal;HPM_P1;HPM_P2
2022/01/07 00:02:06;;;;;;;10.60;7.28;;;1.70;96.20;;;;;;5072921;28;20040;-70
2022/01/07 00:04:35;;;;;;;8.20;6.75;;;1.70;96.20;;;;;;5072033;28;20032;-70
2022/01/07 00:07:00;;;;;;;9.48;7.25;;;1.70;96.10;;;;;;5072223;28;20032;-71
2022/01/07 00:09:26;;;;;;;10.40;6.80;;;1.70;96.30;;;;;;5072302;28;20028;-70
2022/01/07 00:11:52;;;;;;;12.73;7.13;;;1.70;96.20;;;;;;5072185;28;20044;-70
2022/01/07 00:14:17;;;;;;;10.18;6.68;;;1.70;96.30;;;;;;5071909;28;20385;-70
2022/01/07 00:16:43;;;;;;;14.68;8.13;;;1.70;96.20;;;;;;5072218;28;20032;-70
2022/01/07 00:19:08;;;;;;;8.23;6.90;;;1.70;96.10;;;;;;5072357;28;20021;-71
2022/01/07 00:21:34;;;;;;;10.75;6.88;;;1.70;95.90;;;;;;5071565;28;20025;-71
2022/01/07 00:24:00;;;;;;;12.13;7.63;;;1.70;96.00;;;;;;5072382;28;20027;-70
2022/01/07 00:26:26;;;;;;;11.32;6.97;;;1.70;95.90;;;;;;5071779;28;20044;-70
2022/01/07 00:28:52;;;;;;;9.77;7.03;;;1.70;96.00;;;;;;5072115;28;20032;-71
2022/01/07 00:31:17;;;;;;;8.30;6.68;;;1.70;95.90;;;;;;5072150;28;20021;-70
2022/01/07 00:33:43;;;;;;;9.57;7.22;;;1.70;95.80;;;;;;5072203;28;20131;-70
2022/01/07 00:36:10;;;;;;;9.20;6.95;;;1.70;95.70;;;;;;5072129;28;20025;-71
2022/01/07 00:38:36;;;;;;;9.98;7.38;;;1.70;95.50;;;;;;5071668;28;20028;-70
2022/01/07 00:41:03;;;;;;;9.77;6.95;;;1.70;95.20;;;;;;5072129;28;20028;-71
2022/01/07 00:43:29;;;;;;;9.73;7.10;;;1.70;95.00;;;;;;5071589;28;20060;-71
2022/01/07 00:45:55;;;;;;;9.25;6.53;;;1.70;94.80;;;;;;5072176;28;20464;-71
2022/01/07 00:48:20;;;;;;;10.63;7.05;;;1.70;94.70;;;;;;5074046;28;20034;-69
2022/01/07 00:50:46;;;;;;;7.90;6.30;;;1.70;94.60;;;;;;5075164;28;20029;-71
2022/01/07 00:53:12;;;;;;;8.65;6.68;;;1.70;94.40;;;;;;5072721;28;20025;-71
2022/01/07 00:55:37;;;;;;;9.40;6.88;;;1.70;94.20;;;;;;5071818;28;20052;-71
2022/01/07 00:58:03;;;;;;;10.88;6.75;;;1.60;94.30;;;;;;5072008;28;20107;-71
2022/01/07 01:00:29;;;;;;;8.10;6.72;;;1.60;94.20;;;;;;5072517;28;20024;-70
2022/01/07 01:02:56;;;;;;;11.57;6.63;;;1.60;94.10;;;;;;5075585;28;20021;-70
2022/01/07 01:05:23;;;;;;;9.43;6.22;;;1.60;94.30;;;;;;5074914;28;20033;-69
2022/01/07 01:07:49;;;;;;;12.65;5.93;;;1.60;94.20;;;;;;5075458;28;20032;-70
2022/01/07 01:10:17;;;;;;;8.20;6.13;;;1.60;94.40;;;;;;5075149;28;20025;-69
2022/01/07 01:12:44;;;;;;;9.13;6.40;;;1.60;94.40;;;;;;5074611;28;20028;-70
2022/01/07 01:15:12;;;;;;;11.13;6.35;;;1.60;94.40;;;;;;5075440;28;20029;-70
2022/01/07 01:17:39;;;;;;;10.82;6.80;;;1.60;94.60;;;;;;5074727;28;20107;-70
2022/01/07 01:20:07;;;;;;;8.60;5.22;;;1.60;94.70;;;;;;5075135;28;20029;-70
2022/01/07 01:22:33;;;;;;;11.10;5.57;;;1.60;94.60;;;;;;5074748;28;20473;-70
2022/01/07 01:24:59;;;;;;;6.50;5.43;;;1.50;94.70;;;;;;5074920;28;20078;-70
2022/01/07 01:27:25;;;;;;;9.07;6.13;;;1.60;95.00;;;;;;5074722;28;20025;-70
2022/01/07 01:29:50;;;;;;;10.40;6.15;;;1.50;94.80;;;;;;5075179;28;20024;-70
2022/01/07 01:32:16;;;;;;;7.65;5.93;;;1.50;94.60;;;;;;5075209;28;20020;-70
2022/01/07 01:34:42;;;;;;;6.55;5.90;;;1.50;94.80;;;;;;5074595;28;20359;-70
2022/01/07 01:37:08;;;;;;;9.07;6.43;;;1.50;95.20;;;;;;5075014;28;20362;-70
2022/01/07 01:39:34;;;;;;;9.13;5.95;;;1.40;95.20;;;;;;5074841;28;20031;-70
2022/01/07 01:42:00;;;;;;;8.30;5.57;;;1.40;95.10;;;;;;5074919;28;20020;-70
2022/01/07 01:44:25;;;;;;;11.45;7.10;;;1.40;95.30;;;;;;5074129;28;20070;-70
2022/01/07 01:46:51;;;;;;;9.60;6.47;;;1.40;95.60;;;;;;5074803;28;20024;-70
2022/01/07 01:49:17;;;;;;;9.10;6.25;;;1.30;95.70;;;;;;5075105;28;20028;-70
2022/01/07 01:51:42;;;;;;;8.43;5.97;;;1.30;96.00;;;;;;5074298;28;20028;-69
2022/01/07 01:54:08;;;;;;;8.07;5.80;;;1.30;95.60;;;;;;5074346;28;20493;-70
2022/01/07 01:56:34;;;;;;;10.23;5.80;;;1.30;95.80;;;;;;5074230;28;20523;-70
2022/01/07 01:59:00;;;;;;;9.68;5.10;;;1.30;95.60;;;;;;5074590;28;20082;-70
2022/01/07 02:01:26;;;;;;;7.35;5.10;;;1.30;95.60;;;;;;5074341;28;20481;-69
2022/01/07 02:03:52;;;;;;;7.15;5.35;;;1.30;95.60;;;;;;5074232;28;20055;-70
2022/01/07 02:06:17;;;;;;;9.63;6.40;;;1.30;95.50;;;;;;5074379;28;20094;-70
2022/01/07 02:08:44;;;;;;;7.90;5.65;;;1.20;95.60;;;;;;5073650;28;20043;-70
2022/01/07 02:11:09;;;;;;;12.55;6.60;;;1.20;95.70;;;;;;5074123;28;20040;-70
2022/01/07 02:13:35;;;;;;;11.20;6.47;;;1.20;95.60;;;;;;5073797;28;20400;-70
2022/01/07 02:16:01;;;;;;;9.05;5.65;;;1.20;95.80;;;;;;5074355;28;20029;-70
2022/01/07 02:18:26;;;;;;;6.55;5.43;;;1.20;95.40;;;;;;5073854;28;20480;-69
2022/01/07 02:20:52;;;;;;;9.00;4.93;;;1.20;95.20;;;;;;5073894;28;20028;-70
2022/01/07 02:23:19;;;;;;;7.40;5.07;;;1.20;94.80;;;;;;5074212;28;20020;-70
2022/01/07 02:25:45;;;;;;;6.10;4.22;;;1.20;94.40;;;;;;5073489;28;20043;-70
2022/01/07 02:28:12;;;;;;;7.47;4.43;;;1.20;93.90;;;;;;5074084;28;20029;-71
2022/01/07 02:30:39;;;;;;;7.72;3.88;;;1.10;93.20;;;;;;5073151;28;20470;-71
2022/01/07 02:33:05;;;;;;;5.32;3.50;;;1.10;93.10;;;;;;5073766;28;20067;-71
2022/01/07 02:35:33;;;;;;;6.90;3.60;;;1.10;92.90;;;;;;5073383;28;20029;-70
2022/01/07 02:38:00;;;;;;;6.28;3.67;;;1.10;93.00;;;;;;5074078;28;20115;-70
2022/01/07 02:40:26;;;;;;;5.60;3.40;;;1.10;93.10;;;;;;5074032;28;20035;-70
2022/01/07 02:42:53;;;;;;;7.45;4.22;;;1.00;93.30;;;;;;5073720;28;20033;-70
2022/01/07 02:45:19;;;;;;;7.05;3.60;;;1.00;93.30;;;;;;5073676;28;20161;-70
2022/01/07 02:50:12;;;;;;;6.75;3.60;;;1.00;93.40;;;;;;5073604;28;20466;-71
2022/01/07 02:52:38;;;;;;;5.03;3.20;;;1.00;93.50;;;;;;5073061;28;20035;-71
2022/01/07 02:55:04;;;;;;;5.65;3.20;;;1.00;93.30;;;;;;5073080;28;20497;-71
2022/01/07 02:57:29;;;;;;;8.40;3.50;;;1.00;93.30;;;;;;5072627;28;20408;-70
2022/01/07 02:59:55;;;;;;;5.35;3.22;;;1.00;93.20;;;;;;5073446;28;20028;-71
2022/01/07 03:02:21;;;;;;;6.28;3.42;;;1.00;93.00;;;;;;5073030;28;20047;-71
2022/01/07 03:04:46;;;;;;;5.50;3.63;;;1.00;92.90;;;;;;5072635;28;20385;-71
2022/01/07 03:07:12;;;;;;;4.18;3.42;;;0.90;92.80;;;;;;5072883;28;20047;-70
2022/01/07 03:09:37;;;;;;;7.38;3.70;;;1.00;92.80;;;;;;5072645;28;20103;-71
2022/01/07 03:12:04;;;;;;;5.72;3.20;;;1.00;92.90;;;;;;5072891;28;20024;-70
2022/01/07 03:14:29;;;;;;;5.53;2.92;;;1.00;92.80;;;;;;5072478;28;20044;-70
2022/01/07 03:16:55;;;;;;;5.13;3.10;;;1.00;92.70;;;;;;5073106;28;20419;-70
2022/01/07 03:19:20;;;;;;;5.78;3.55;;;1.00;92.70;;;;;;5073110;28;20454;-70
2022/01/07 03:21:46;;;;;;;5.88;3.38;;;1.00;92.90;;;;;;5072471;28;20025;-70
2022/01/07 03:24:12;;;;;;;5.18;3.08;;;1.00;92.80;;;;;;5072424;28;20027;-72
2022/01/07 03:26:38;;;;;;;5.65;3.42;;;1.00;92.80;;;;;;5072435;28;20027;-70
2022/01/07 03:29:04;;;;;;;7.05;3.40;;;0.90;92.90;;;;;;5073169;28;20453;-70
2022/01/07 03:31:30;;;;;;;4.28;3.40;;;0.90;92.60;;;;;;5054768;28;20115;-70
2022/01/07 03:33:56;;;;;;;5.32;3.40;;;0.90;92.70;;;;;;5074211;28;20059;-70
2022/01/07 03:36:21;;;;;;;6.75;3.53;;;0.90;92.60;;;;;;5074474;28;20385;-71
2022/01/07 03:38:47;;;;;;;5.75;3.60;;;0.90;92.60;;;;;;5074018;28;20025;-70
2022/01/07 03:41:13;;;;;;;5.85;3.30;;;0.90;92.90;;;;;;5055226;28;20036;-70
2022/01/07 03:43:38;;;;;;;7.43;3.60;;;0.90;92.60;;;;;;5072275;28;20040;-70
2022/01/07 03:46:04;;;;;;;6.15;3.58;;;0.80;92.50;;;;;;5072698;28;20072;-70
2022/01/07 03:48:30;;;;;;;4.07;3.05;;;0.80;92.40;;;;;;5072201;28;20031;-70
2022/01/07 03:50:55;;;;;;;4.35;3.40;;;0.80;92.30;;;;;;5072463;28;20024;-71
2022/01/07 03:53:24;;;;;;;6.72;3.90;;;0.80;92.10;;;;;;5076194;28;20032;-70
2022/01/07 03:55:51;;;;;;;7.38;3.72;;;0.70;92.20;;;;;;5075127;28;20065;-70
2022/01/07 03:58:16;;;;;;;8.20;3.80;;;0.70;92.00;;;;;;5074091;28;20503;-70
2022/01/07 04:00:42;;;;;;;5.68;3.30;;;0.60;92.00;;;;;;5072823;28;20021;-71
2022/01/07 04:03:11;;;;;;;5.28;4.22;;;0.60;92.10;;;;;;5079391;28;20032;-70
2022/01/07 04:05:37;;;;;;;7.50;3.47;;;0.60;92.40;;;;;;5076318;28;20036;-69
2022/01/07 04:08:05;;;;;;;6.40;4.18;;;0.50;92.50;;;;;;5073585;28;20070;-70
2022/01/07 04:10:30;;;;;;;5.20;3.78;;;0.50;92.40;;;;;;5072532;28;20456;-70
2022/01/07 04:12:56;;;;;;;5.25;3.42;;;0.50;92.60;;;;;;5071915;28;20036;-70
2022/01/07 04:15:23;;;;;;;7.45;3.70;;;0.50;92.70;;;;;;5072377;28;20385;-70
2022/01/07 04:17:51;;;;;;;6.43;4.28;;;0.50;92.40;;;;;;5071961;28;20025;-70
2022/01/07 04:20:23;;;;;;;6.45;3.80;;;0.50;92.50;;;;;;5072132;28;20389;-69
2022/01/07 04:25:34;;;;;;;5.63;3.60;;;0.40;92.60;;;;;;5072038;28;20044;-69
2022/01/07 04:28:03;;;;;;;6.75;3.20;;;0.40;92.60;;;;;;5072508;28;20021;-69
2022/01/07 04:30:33;;;;;;;3.75;3.10;;;0.30;92.10;;;;;;5072272;28;20031;-69
2022/01/07 04:32:59;;;;;;;5.55;2.80;;;0.30;92.00;;;;;;5071617;28;20032;-69
2022/01/07 04:35:25;;;;;;;6.55;3.15;;;0.30;92.00;;;;;;5075099;28;20129;-69
2022/01/07 04:37:51;;;;;;;8.32;3.40;;;0.30;91.90;;;;;;5075585;28;20032;-69
2022/01/07 04:40:19;;;;;;;8.77;3.38;;;0.30;92.00;;;;;;5076046;28;20028;-69
2022/01/07 04:42:45;;;;;;;3.83;2.80;;;0.30;92.30;;;;;;5057471;28;20388;-69
2022/01/07 04:45:11;;;;;;;5.90;3.58;;;0.30;92.10;;;;;;5076079;28;20035;-69
2022/01/07 04:47:38;;;;;;;7.78;3.67;;;0.20;91.80;;;;;;5075400;28;20031;-68
2022/01/07 04:50:07;;;;;;;7.35;3.47;;;0.20;92.20;;;;;;5075832;28;20021;-70
2022/01/07 04:52:33;;;;;;;6.20;4.03;;;0.30;92.50;;;;;;5075831;28;20059;-71
2022/01/07 04:54:58;;;;;;;5.50;3.45;;;0.30;92.50;;;;;;5074757;28;20464;-70
2022/01/07 04:57:24;;;;;;;6.75;3.40;;;0.30;92.20;;;;;;5075711;28;20107;-70
2022/01/07 04:59:50;;;;;;;6.55;3.85;;;0.20;92.00;;;;;;5075136;28;20527;-70
2022/01/07 05:02:19;;;;;;;8.07;3.92;;;0.20;91.90;;;;;;5075716;28;20035;-70
2022/01/07 05:04:45;;;;;;;7.72;3.88;;;0.20;91.70;;;;;;5074867;28;20036;-70
2022/01/07 05:07:11;;;;;;;8.38;4.22;;;0.20;91.70;;;;;;5075579;28;20016;-70
2022/01/07 05:09:36;;;;;;;9.07;4.30;;;0.20;92.00;;;;;;5075772;28;20070;-68
2022/01/07 05:12:03;;;;;;;10.60;4.18;;;0.10;92.00;;;;;;5075455;28;20021;-71
2022/01/07 05:14:28;;;;;;;6.88;4.25;;;0.10;92.20;;;;;;5075351;28;20108;-69
2022/01/07 05:16:56;;;;;;;7.03;3.72;;;0.10;92.40;;;;;;5056975;28;20056;-71
2022/01/07 05:19:21;;;;;;;6.18;3.78;;;0.10;92.60;;;;;;5075385;28;20020;-69
2022/01/07 05:21:47;;;;;;;7.10;3.80;;;0.10;92.50;;;;;;5075125;28;20647;-70
2022/01/07 05:24:13;;;;;;;5.88;3.55;;;0.10;92.70;;;;;;5075150;28;20475;-71
2022/01/07 05:26:38;;;;;;;8.13;3.25;;;0.10;92.80;;;;;;5074695;28;20060;-70
2022/01/07 05:29:04;;;;;;;5.20;2.97;;;0.10;92.70;;;;;;5075122;28;20350;-70
2022/01/07 05:31:30;;;;;;;6.25;3.45;;;0.10;92.40;;;;;;5074814;28;20451;-71
2022/01/07 05:33:56;;;;;;;5.18;2.92;;;0.10;92.20;;;;;;5074552;28;20034;-70
2022/01/07 05:36:22;;;;;;;8.10;3.60;;;0.00;91.90;;;;;;5075076;28;20033;-71
2022/01/07 05:38:49;;;;;;;6.50;3.30;;;0.00;91.50;;;;;;5074536;28;20075;-71
2022/01/07 05:41:15;;;;;;;6.20;2.92;;;0.00;91.50;;;;;;5074695;28;20025;-71
2022/01/07 05:43:41;;;;;;;4.68;2.58;;;0.00;91.60;;;;;;5074285;28;20382;-70
2022/01/07 05:46:14;;;;;;;8.05;3.35;;;0.00;91.50;;;;;;5073594;28;20032;-71
2022/01/07 05:48:44;;;;;;;7.00;3.15;;;-0.10;91.30;;;;;;5074107;28;20077;-70
2022/01/07 05:51:09;;;;;;;8.02;3.10;;;-0.10;91.40;;;;;;5074351;28;20028;-70
2022/01/07 05:53:35;;;;;;;4.95;3.15;;;-0.10;91.50;;;;;;5074683;28;20130;-70
2022/01/07 05:56:01;;;;;;;7.55;3.80;;;-0.10;91.30;;;;;;5073731;28;20125;-71
2022/01/07 05:58:27;;;;;;;9.45;4.70;;;-0.20;91.40;;;;;;5074714;28;20423;-71
2022/01/07 06:00:52;;;;;;;8.65;4.53;;;-0.20;91.30;;;;;;5074087;28;20104;-71
2022/01/07 06:03:18;;;;;;;8.82;4.50;;;-0.20;91.50;;;;;;5056650;28;20385;-71
2022/01/07 06:05:44;;;;;;;9.73;5.20;;;-0.20;91.50;;;;;;5054930;28;20041;-70
2022/01/07 06:08:09;;;;;;;8.70;4.93;;;-0.20;91.50;;;;;;5074475;28;20025;-71
2022/01/07 06:10:36;;;;;;;8.25;4.60;;;-0.30;91.30;;;;;;5074189;28;20082;-70
2022/01/07 06:13:20;;;;;;;10.13;4.72;;;-0.30;91.70;;;;;;5073673;28;20028;-70
2022/01/07 06:15:46;;;;;;;7.88;4.65;;;-0.30;91.80;;;;;;5073701;28;20028;-70
2022/01/07 06:18:11;;;;;;;6.78;4.03;;;-0.30;92.00;;;;;;5074192;28;20025;-70
2022/01/07 06:20:37;;;;;;;8.60;4.15;;;-0.30;92.00;;;;;;5073849;28;20595;-70
2022/01/07 06:23:03;;;;;;;6.93;3.75;;;-0.30;92.10;;;;;;5073248;28;20086;-71
2022/01/07 06:25:29;;;;;;;7.40;3.63;;;-0.20;91.90;;;;;;5055992;28;20086;-71
2022/01/07 06:27:54;;;;;;;7.35;3.20;;;-0.30;91.70;;;;;;5073486;28;20043;-70
2022/01/07 06:30:21;;;;;;;6.03;2.90;;;-0.30;91.80;;;;;;5074037;28;20056;-71
2022/01/07 06:32:46;;;;;;;5.85;2.92;;;-0.20;91.50;;;;;;5055677;28;20028;-71
2022/01/07 06:35:12;;;;;;;5.57;2.85;;;-0.20;91.10;;;;;;5073881;28;20028;-71
2022/01/07 06:37:38;;;;;;;8.25;3.20;;;-0.20;90.90;;;;;;5073731;28;20504;-71
2022/01/07 06:40:06;;;;;;;4.15;2.50;;;-0.10;90.60;;;;;;5073058;28;20016;-71
2022/01/07 06:42:33;;;;;;;6.85;2.95;;;-0.10;90.30;;;;;;5073515;28;20028;-71
2022/01/07 06:44:59;;;;;;;4.93;3.22;;;-0.10;90.00;;;;;;5073220;28;20059;-71
2022/01/07 06:47:24;;;;;;;6.38;3.28;;;-0.10;90.00;;;;;;5073504;28;20021;-72
2022/01/07 06:49:50;;;;;;;5.55;3.20;;;0.00;89.70;;;;;;5073087;28;20025;-71
2022/01/07 06:52:16;;;;;;;7.47;2.85;;;0.00;89.90;;;;;;5073578;28;20028;-71
2022/01/07 06:54:42;;;;;;;9.25;3.55;;;-0.10;89.30;;;;;;5073228;28;20182;-71
2022/01/07 06:57:07;;;;;;;5.13;3.03;;;-0.10;88.90;;;;;;5072456;28;20461;-71
2022/01/07 06:59:33;;;;;;;5.72;2.72;;;-0.10;88.60;;;;;;5072488;28;20032;-71
2022/01/07 07:01:59;;;;;;;5.78;3.15;;;-0.10;87.90;;;;;;5072859;28;20040;-70
2022/01/07 07:04:25;;;;;;;5.43;3.10;;;-0.10;87.70;;;;;;5073294;28;20377;-70
2022/01/07 07:06:51;;;;;;;9.25;3.00;;;-0.10;87.40;;;;;;5072406;28;20350;-70
2022/01/07 07:09:18;;;;;;;6.90;3.00;;;-0.10;87.20;;;;;;5072972;28;20084;-71
2022/01/07 07:11:43;;;;;;;5.65;2.80;;;-0.10;86.90;;;;;;5073162;28;20056;-70
2022/01/07 07:14:13;;;;;;;9.07;3.50;;;-0.10;86.80;;;;;;5073082;28;20059;-70
2022/01/07 07:16:57;;;;;;;7.68;3.03;;;-0.20;86.60;;;;;;5055081;28;20380;-70
2022/01/07 07:19:24;;;;;;;6.40;2.85;;;-0.10;86.80;;;;;;5072945;28;20030;-71
2022/01/07 07:21:50;;;;;;;4.95;2.88;;;-0.10;86.60;;;;;;5073036;28;20024;-71
2022/01/07 07:24:15;;;;;;;5.47;3.03;;;-0.10;86.20;;;;;;5077098;28;20029;-72
2022/01/07 07:26:41;;;;;;;5.72;2.65;;;-0.10;86.30;;;;;;5074582;28;20165;-71
2022/01/07 07:29:07;;;;;;;4.93;2.63;;;-0.10;85.80;;;;;;5072492;28;20531;-70
2022/01/07 07:31:37;;;;;;;5.97;2.85;;;-0.10;86.00;;;;;;5073114;28;20027;-70
2022/01/07 07:34:19;;;;;;;4.90;2.97;;;0.00;85.70;;;;;;5072368;28;20075;-71
2022/01/07 07:36:45;;;;;;;8.85;3.17;;;0.00;85.50;;;;;;5057166;28;20040;-71
2022/01/07 07:39:13;;;;;;;7.07;2.75;;;0.00;85.70;;;;;;5072747;28;20052;-70
2022/01/07 07:41:41;;;;;;;4.63;2.58;;;0.00;85.60;;;;;;5073792;28;20028;-71
2022/01/07 07:44:07;;;;;;;6.13;3.33;;;0.10;85.30;;;;;;5072157;28;20032;-70
2022/01/07 07:46:35;;;;;;;4.38;2.60;;;0.10;85.10;;;;;;5072494;28;20040;-71
2022/01/07 07:49:05;;;;;;;6.13;2.70;;;0.10;85.00;;;;;;5054622;28;20028;-71
2022/01/07 07:51:31;;;;;;;6.28;2.95;;;0.10;85.10;;;;;;5072407;28;20036;-71
2022/01/07 07:53:58;;;;;;;8.93;3.30;;;0.10;84.30;;;;;;5053615;28;20034;-71
2022/01/07 07:56:25;;;;;;;4.50;2.53;;;0.20;84.20;;;;;;5072414;28;20037;-72
2022/01/07 07:58:51;;;;;;;6.28;2.60;;;0.20;83.80;;;;;;5071891;28;20027;-71
2022/01/07 08:01:18;;;;;;;8.40;2.85;;;0.20;83.30;;;;;;5072508;28;20025;-72
2022/01/07 08:03:44;;;;;;;4.63;2.97;;;0.30;82.90;;;;;;5072432;28;20103;-71
2022/01/07 08:06:10;;;;;;;5.75;2.70;;;0.30;82.50;;;;;;5071861;28;20032;-71
2022/01/07 08:08:36;;;;;;;5.50;2.90;;;0.30;81.90;;;;;;5072881;28;20028;-71
2022/01/07 08:11:05;;;;;;;8.45;3.00;;;0.40;82.00;;;;;;5060699;28;20429;-70
2022/01/07 08:15:57;;;;;;;6.75;2.90;;;0.40;81.60;;;;;;5079261;28;20025;-71
2022/01/07 08:16:19;;;;;;;8.15;3.00;;;0.40;81.20;;;;;;5078596;28;20090;-71
2022/01/07 08:18:47;;;;;;;7.30;3.20;;;0.50;81.00;;;;;;5061133;28;20421;-71
2022/01/07 08:21:13;;;;;;;8.70;3.20;;;0.60;80.70;;;;;;5078590;28;20027;-71
2022/01/07 08:23:41;;;;;;;4.63;2.70;;;0.60;80.40;;;;;;5078965;28;20028;-71
2022/01/07 08:26:09;;;;;;;10.57;2.65;;;0.70;80.20;;;;;;5078019;28;20518;-71
2022/01/07 08:28:49;;;;;;;6.75;3.03;;;0.70;79.40;;;;;;5078160;28;20096;-71
2022/01/07 08:36:41;;;;;;;7.63;3.38;;;0.80;77.70;;;;;;5078668;28;20051;-71
2022/01/07 08:39:08;;;;;;;5.00;2.78;;;0.90;77.30;;;;;;5077976;28;20527;-71
2022/01/07 08:41:35;;;;;;;5.90;2.90;;;0.90;76.70;;;;;;5078610;28;20039;-70
2022/01/07 08:44:02;;;;;;;4.45;2.78;;;0.90;76.50;;;;;;5078150;28;20028;-70
2022/01/07 08:46:27;;;;;;;3.85;2.42;;;1.00;76.20;;;;;;5078748;28;20037;-71
2022/01/07 08:48:54;;;;;;;5.40;2.70;;;1.00;75.10;;;;;;5078195;28;20473;-70
2022/01/07 08:51:20;;;;;;;3.72;2.53;;;1.00;75.40;;;;;;5078441;28;20453;-70
2022/01/07 08:56:30;;;;;;;6.82;3.28;;;1.00;75.40;;;;;;5078438;28;20035;-71
2022/01/07 08:58:57;;;;;;;9.25;3.53;;;1.10;74.50;;;;;;5078155;28;20024;-71
2022/01/07 09:01:24;;;;;;;3.83;2.63;;;1.00;74.20;;;;;;5079027;28;20249;-71
2022/01/07 09:03:51;;;;;;;11.13;3.20;;;1.10;74.10;;;;;;5078432;28;20028;-71
2022/01/07 09:06:18;;;;;;;4.82;2.92;;;1.10;74.10;;;;;;5060377;28;20370;-71
2022/01/07 09:08:44;;;;;;;4.47;2.50;;;1.10;73.80;;;;;;5078537;28;20028;-71
2022/01/07 09:11:11;;;;;;;4.95;2.78;;;1.10;73.30;;;;;;5078152;28;20465;-72
2022/01/07 09:13:37;;;;;;;4.97;2.50;;;1.10;73.00;;;;;;5078761;28;20078;-72
2022/01/07 09:16:03;;;;;;;6.32;2.90;;;1.20;72.60;;;;;;5078058;28;20025;-71
2022/01/07 09:18:31;;;;;;;9.00;2.92;;;1.20;72.40;;;;;;5078467;28;20111;-71
2022/01/07 09:20:58;;;;;;;5.03;2.90;;;1.20;72.40;;;;;;5075573;28;20020;-71
2022/01/07 09:23:23;;;;;;;8.80;3.47;;;1.20;72.40;;;;;;5075337;28;20040;-71
2022/01/07 09:25:49;;;;;;;8.23;3.20;;;1.30;72.70;;;;;;5075263;28;20032;-72
2022/01/07 09:28:15;;;;;;;4.78;2.65;;;1.30;72.10;;;;;;5074774;28;20029;-72
2022/01/07 09:30:40;;;;;;;6.30;3.15;;;1.40;72.00;;;;;;5075059;28;20078;-71
2022/01/07 09:33:06;;;;;;;7.60;3.45;;;1.40;72.30;;;;;;5075882;28;20035;-72
2022/01/07 09:35:32;;;;;;;5.65;3.28;;;1.40;72.50;;;;;;5076222;28;20028;-71
2022/01/07 09:37:57;;;;;;;5.88;3.13;;;1.40;72.80;;;;;;5075208;28;20029;-72
2022/01/07 09:40:23;;;;;;;6.95;3.17;;;1.40;73.20;;;;;;5075096;28;20028;-72
2022/01/07 09:42:57;;;;;;;7.13;3.35;;;1.40;73.60;;;;;;5074923;28;20157;-72
2022/01/07 09:45:24;;;;;;;8.15;3.33;;;1.40;73.80;;;;;;5075598;28;20082;-72
2022/01/07 09:47:51;;;;;;;4.78;2.88;;;1.50;74.20;;;;;;5075488;28;20064;-73
2022/01/07 09:50:16;;;;;;;5.22;3.33;;;1.50;74.30;;;;;;5074500;28;20028;-73
2022/01/07 09:52:42;;;;;;;5.28;3.30;;;1.50;74.00;;;;;;5074688;28;20442;-72
2022/01/07 09:55:08;;;;;;;8.45;3.25;;;1.60;73.80;;;;;;5074078;28;20058;-73
2022/01/07 09:57:34;;;;;;;12.48;3.72;;;1.60;74.00;;;;;;5074358;28;20115;-72
2022/01/07 10:00:00;;;;;;;8.60;4.00;;;1.60;74.50;;;;;;5074252;28;20107;-72
2022/01/07 10:03:01;;;;;;;13.63;3.42;;;1.60;74.70;;;;;;5074633;28;20029;-72
2022/01/07 10:05:28;;;;;;;;;;;1.70;74.90;;;;;;5074753;28;20219;-72
2022/01/07 10:07:54;;;;;;;8.23;3.70;;;1.80;75.00;;;;;;5074346;28;19962;-72
2022/01/07 10:10:19;;;;;;;9.23;3.42;;;1.90;75.30;;;;;;5073897;28;20028;-72
2022/01/07 10:13:00;;;;;;;8.07;3.35;;;2.10;76.10;;;;;;5074399;28;20028;-72
2022/01/07 10:15:29;;;;;;;5.60;3.30;;;2.30;76.10;;;;;;5074739;28;20381;-73
2022/01/07 10:17:58;;;;;;;6.13;2.75;;;2.40;75.80;;;;;;5073964;28;20494;-73
2022/01/07 10:20:33;;;;;;;6.63;3.35;;;2.60;74.00;;;;;;5074074;28;20033;-72
2022/01/07 10:23:02;;;;;;;4.95;2.55;;;2.90;71.40;;;;;;5073806;28;20035;-71
2022/01/07 10:25:31;;;;;;;7.70;2.95;;;3.10;69.40;;;;;;5074157;28;20032;-71
2022/01/07 10:28:06;;;;;;;5.32;2.70;;;3.20;68.70;;;;;;5073732;28;20033;-71
2022/01/07 10:31:02;;;;;;;4.85;2.58;;;3.40;68.20;;;;;;5040126;28;20459;-72
2022/01/07 10:33:30;;;;;;;5.82;3.00;;;3.60;68.20;;;;;;5074130;28;20378;-71
2022/01/07 10:36:08;;;;;;;6.25;3.03;;;3.90;66.70;;;;;;5075621;28;20028;-72
2022/01/07 10:38:36;;;;;;;5.53;2.30;;;4.10;64.40;;;;;;5078072;28;20036;-72
2022/01/07 10:41:03;;;;;;;4.15;2.40;;;4.20;62.10;;;;;;5074395;28;20027;-71
2022/01/07 10:43:34;;;;;;;2.38;1.80;;;4.40;61.20;;;;;;5074300;28;20029;-72
2022/01/07 10:46:07;;;;;;;5.72;2.58;;;4.50;59.00;;;;;;5073462;28;20119;-71
2022/01/07 10:48:38;;;;;;;5.70;2.30;;;4.60;57.80;;;;;;5073786;28;20500;-72
2022/01/07 10:51:12;;;;;;;6.82;2.20;;;4.70;57.70;;;;;;5073169;28;20059;-71
2022/01/07 10:53:38;;;;;;;5.68;2.47;;;4.80;57.10;;;;;;5073496;28;20020;-71
2022/01/07 10:56:24;;;;;;;5.72;2.45;;;4.90;57.00;;;;;;5055244;28;20106;-70
2022/01/07 10:59:11;;;;;;;5.28;2.25;;;5.00;56.40;;;;;;5073637;28;20036;-72
2022/01/07 11:01:38;;;;;;;3.97;2.15;;;5.10;56.00;;;;;;5073845;28;20028;-71
2022/01/07 11:04:07;;;;;;;5.65;2.20;;;5.00;56.10;;;;;;5072942;28;20028;-69
2022/01/07 11:06:34;;;;;;;6.82;2.42;;;5.10;56.40;;;;;;5073558;28;20389;-71
2022/01/07 11:09:01;;;;;;;6.70;2.50;;;5.10;56.50;;;;;;5073573;28;20016;-73
2022/01/07 11:11:29;;;;;;;7.15;2.80;;;5.20;57.20;;;;;;5072256;28;20400;-72
2022/01/07 11:14:16;;;;;;;7.72;2.70;;;5.20;56.70;;;;;;5073464;28;20020;-72
2022/01/07 11:16:42;;;;;;;5.88;2.72;;;5.20;56.50;;;;;;5073181;28;20039;-72
2022/01/07 11:19:09;;;;;;;5.65;2.20;;;5.20;56.80;;;;;;5072254;28;20024;-71
2022/01/07 11:21:36;;;;;;;4.68;2.15;;;5.10;56.80;;;;;;5073107;28;20024;-71
2022/01/07 11:24:35;;;;;;;6.03;2.55;;;5.10;57.20;;;;;;5072420;28;20032;-69
2022/01/07 11:27:03;;;;;;;7.53;2.65;;;5.10;57.80;;;;;;5072965;28;20499;-71
2022/01/07 11:29:29;;;;;;;4.95;2.65;;;5.10;57.90;;;;;;5073107;28;20115;-71
2022/01/07 11:32:15;;;;;;;8.02;2.22;;;5.10;57.20;;;;;;5072785;28;20112;-72
2022/01/07 11:34:41;;;;;;;5.30;2.63;;;5.10;56.80;;;;;;5054518;28;20385;-72
2022/01/07 11:37:33;;;;;;;6.53;2.30;;;5.10;56.90;;;;;;5072026;28;20031;-71
2022/01/07 11:39:59;;;;;;;5.00;2.45;;;5.10;56.70;;;;;;5072948;28;20024;-72
2022/01/07 11:42:42;;;;;;;4.85;2.22;;;5.20;55.90;;;;;;5072087;28;20449;-71
2022/01/07 11:45:29;;;;;;;7.10;2.88;;;5.20;55.30;;;;;;5071672;28;20115;-70
2022/01/07 11:47:56;;;;;;;4.07;2.13;;;5.20;55.70;;;;;;5072499;28;20031;-71
2022/01/07 11:50:25;;;;;;;4.22;2.20;;;5.20;55.10;;;;;;5072043;28;20024;-72
2022/01/07 11:53:05;;;;;;;5.40;2.65;;;5.20;54.60;;;;;;5072654;28;20024;-72
2022/01/07 11:55:36;;;;;;;6.38;2.45;;;5.20;54.10;;;;;;5072650;28;20485;-72
2022/01/07 11:58:11;;;;;;;4.40;2.65;;;5.20;54.00;;;;;;5072589;28;20457;-72
2022/01/07 12:00:56;;;;;;;4.22;2.42;;;5.20;54.10;;;;;;5072312;28;20477;-72
2022/01/07 12:03:44;;;;;;;4.82;2.55;;;5.20;54.20;;;;;;5071634;28;20391;-71
2022/01/07 12:06:24;;;;;;;5.53;2.70;;;5.20;54.10;;;;;;5071943;28;20036;-71
2022/01/07 12:08:56;;;;;;;9.15;2.97;;;5.20;54.50;;;;;;5072404;28;20063;-73
2022/01/07 12:11:23;;;;;;;5.65;2.97;;;5.30;54.40;;;;;;5071886;28;20048;-71
2022/01/07 12:13:49;;;;;;;10.77;3.30;;;5.30;54.70;;;;;;5072393;28;20465;-72
2022/01/07 12:16:22;;;;;;;8.68;4.03;;;5.30;54.80;;;;;;5071882;28;20029;-71
2022/01/07 12:18:48;;;;;;;9.55;3.38;;;5.30;55.20;;;;;;5072310;28;20024;-71
2022/01/07 12:21:14;;;;;;;8.57;3.67;;;5.30;55.10;;;;;;5071461;28;20103;-71
2022/01/07 12:23:41;;;;;;;8.02;3.47;;;5.30;55.30;;;;;;5072224;28;20051;-71
2022/01/07 12:26:08;;;;;;;6.43;3.40;;;5.30;55.40;;;;;;5071569;28;20358;-71
2022/01/07 12:28:40;;;;;;;5.95;3.63;;;5.30;55.30;;;;;;5072360;28;20109;-71
2022/01/07 12:31:11;;;;;;;5.95;3.10;;;5.30;55.40;;;;;;5071852;28;20029;-71
2022/01/07 12:33:56;;;;;;;5.00;2.20;;;5.20;55.60;;;;;;5071888;28;20020;-71
2022/01/07 12:36:33;;;;;;;5.32;2.53;;;5.20;55.00;;;;;;5054926;28;20036;-71
2022/01/07 12:39:08;;;;;;;5.70;2.97;;;5.10;55.10;;;;;;5071961;28;20108;-71
2022/01/07 12:41:35;;;;;;;4.43;2.53;;;5.00;55.30;;;;;;5054353;28;20036;-71
2022/01/07 12:44:13;;;;;;;5.82;2.55;;;5.00;55.50;;;;;;5071809;28;20409;-71
2022/01/07 12:46:40;;;;;;;6.35;2.75;;;5.00;55.80;;;;;;5072200;28;20040;-71
2022/01/07 12:49:08;;;;;;;4.75;2.50;;;4.90;55.40;;;;;;5072142;28;20423;-72
2022/01/07 12:51:35;;;;;;;5.55;2.75;;;4.90;55.40;;;;;;5072038;28;20074;-71
2022/01/07 12:54:08;;;;;;;6.00;2.70;;;4.80;55.30;;;;;;5071674;28;20024;-71
2022/01/07 12:56:37;;;;;;;7.20;2.35;;;4.80;56.00;;;;;;5073637;28;20060;-71
2022/01/07 12:59:17;;;;;;;5.95;2.50;;;4.90;55.70;;;;;;5075474;28;20032;-70
2022/01/07 13:01:47;;;;;;;9.18;2.65;;;4.80;55.00;;;;;;5075635;28;20058;-72
2022/01/07 13:04:21;;;;;;;5.55;2.88;;;4.80;55.30;;;;;;5075202;28;20082;-71
2022/01/07 13:06:57;;;;;;;5.38;2.45;;;4.70;55.40;;;;;;5075366;28;20040;-71
2022/01/07 13:09:24;;;;;;;7.38;2.80;;;4.60;55.50;;;;;;5074717;28;20162;-72
2022/01/07 13:11:55;;;;;;;6.53;2.70;;;4.60;55.40;;;;;;5075431;28;20111;-71
2022/01/07 13:14:23;;;;;;;6.90;3.00;;;4.50;55.70;;;;;;5074732;28;20351;-71